Time;durP1;ratioP1;P1;durP2;ratioP2;P2;SDS_P1;SDS_P2;PMS_P1;PMS_P2;Temp;Humidity;BMP_temperature;BMP_pressure;BME280_temperature;BME280_humidity;BME280_pressure;Samples;Min_cycle;Max_cycle;Signal;HPM_P1;HPM_P2
2021/03/19 00:02:23;;;;;;;50.83;17.10;;;-5.20;99.90;;;;;;4436687;28;660874;-53
2021/03/19 00:05:11;;;;;;;54.10;17.67;;;-5.30;99.90;;;;;;4457905;28;662268;-52
2021/03/19 00:07:58;;;;;;;52.40;17.00;;;-5.30;99.90;;;;;;4443760;28;661066;-51
2021/03/19 00:10:46;;;;;;;51.40;16.00;;;-5.40;99.90;;;;;;4454974;28;662209;-50
2021/03/19 00:13:33;;;;;;;45.03;15.97;;;-5.40;99.90;;;;;;4435374;28;660708;-51
2021/03/19 00:16:20;;;;;;;53.67;16.38;;;-5.50;99.90;;;;;;4459357;28;661621;-52
2021/03/19 00:19:08;;;;;;;60.83;18.77;;;-5.50;99.90;;;;;;4428941;28;660635;-55
2021/03/19 00:21:55;;;;;;;62.83;18.03;;;-5.40;99.90;;;;;;4462194;28;662690;-53
2021/03/19 00:24:42;;;;;;;64.97;19.17;;;-5.50;99.90;;;;;;4443567;28;663088;-56
2021/03/19 00:27:30;;;;;;;65.60;19.30;;;-5.40;99.90;;;;;;4462536;28;660483;-52
2021/03/19 00:30:18;;;;;;;58.67;16.90;;;-5.40;99.90;;;;;;4452075;28;661458;-57
2021/03/19 00:33:05;;;;;;;53.67;16.97;;;-5.40;99.90;;;;;;4458051;28;661722;-53
2021/03/19 00:35:51;;;;;;;63.20;16.83;;;-5.50;99.90;;;;;;4456314;28;660444;-54
2021/03/19 00:38:39;;;;;;;55.23;16.97;;;-5.50;99.90;;;;;;4443697;28;660773;-50
2021/03/19 00:41:25;;;;;;;47.57;16.33;;;-5.50;99.90;;;;;;4460224;28;662391;-52
2021/03/19 00:44:14;;;;;;;54.43;17.17;;;-5.50;99.90;;;;;;4442488;28;660752;-51
2021/03/19 00:47:00;;;;;;;61.53;19.60;;;-5.50;99.90;;;;;;4453360;28;661843;-49
2021/03/19 00:49:47;;;;;;;66.53;17.77;;;-5.40;99.90;;;;;;4442772;28;661663;-55
2021/03/19 00:52:34;;;;;;;68.73;19.10;;;-5.30;99.90;;;;;;4442579;28;662253;-51
2021/03/19 00:55:21;;;;;;;69.63;19.67;;;-5.30;99.90;;;;;;4462424;28;660864;-51
2021/03/19 00:58:08;;;;;;;62.22;19.42;;;-5.20;99.90;;;;;;4435216;28;660691;-51
2021/03/19 01:00:56;;;;;;;71.27;20.73;;;-5.20;99.90;;;;;;4461378;28;661677;-52
2021/03/19 01:03:43;;;;;;;63.20;19.30;;;-5.20;99.90;;;;;;4441133;28;660749;-50
2021/03/19 01:06:30;;;;;;;68.23;19.97;;;-5.20;99.90;;;;;;4466484;28;662280;-54
2021/03/19 01:09:18;;;;;;;58.93;18.77;;;-5.20;99.90;;;;;;4441524;28;662017;-55
2021/03/19 01:12:05;;;;;;;62.83;17.83;;;-5.20;99.90;;;;;;4459104;28;661541;-53
2021/03/19 01:14:52;;;;;;;64.55;19.65;;;-5.20;99.90;;;;;;4446405;28;662109;-56
2021/03/19 01:17:40;;;;;;;56.87;18.63;;;-5.20;99.90;;;;;;4458004;28;660420;-55
2021/03/19 01:20:28;;;;;;;61.28;19.52;;;-5.30;99.90;;;;;;4429562;28;660461;-56
2021/03/19 01:23:18;;;;;;;59.87;18.50;;;-5.30;99.90;;;;;;4460736;28;661680;-51
2021/03/19 01:26:04;;;;;;;66.63;19.87;;;-5.30;99.90;;;;;;4421546;28;662205;-52
2021/03/19 01:28:52;;;;;;;61.27;17.83;;;-5.40;99.90;;;;;;4456916;28;660383;-54
2021/03/19 01:31:38;;;;;;;55.30;18.27;;;-5.40;99.90;;;;;;4440145;28;661616;-53
2021/03/19 01:34:26;;;;;;;60.00;18.07;;;-5.50;99.90;;;;;;4463893;28;661543;-55
2021/03/19 01:37:13;;;;;;;59.70;17.60;;;-5.50;99.90;;;;;;4439367;28;660829;-50
2021/03/19 01:40:00;;;;;;;59.38;18.35;;;-5.50;99.90;;;;;;4462640;28;662127;-53
2021/03/19 01:42:47;;;;;;;61.80;17.67;;;-5.40;99.90;;;;;;4432143;28;662057;-56
2021/03/19 01:46:16;;;;;;;66.93;19.95;;;-5.30;99.90;;;;;;4463358;28;660409;-53
2021/03/19 01:49:39;;;;;;;63.27;19.77;;;-5.20;99.90;;;;;;4415591;28;661863;-54
2021/03/19 01:53:03;;;;;;;70.83;19.10;;;-5.10;99.90;;;;;;4402284;28;662519;-52
2021/03/19 01:56:27;;;;;;;66.60;21.40;;;-5.00;99.90;;;;;;4437237;28;662062;-50
2021/03/19 01:59:51;;;;;;;68.87;21.27;;;-4.90;99.90;;;;;;4412035;28;661484;-53
2021/03/19 02:03:15;;;;;;;77.50;21.90;;;-4.70;99.90;;;;;;4417897;28;662536;-53
2021/03/19 02:06:39;;;;;;;82.60;21.53;;;-4.70;99.90;;;;;;4438230;28;661894;-53
2021/03/19 02:10:02;;;;;;;69.47;21.80;;;-4.60;99.90;;;;;;4423438;28;660505;-53
2021/03/19 02:13:26;;;;;;;68.47;20.93;;;-4.60;99.90;;;;;;4418723;28;661408;-53
2021/03/19 02:16:47;;;;;;;66.22;21.13;;;-4.60;99.90;;;;;;4416911;28;661971;-54
2021/03/19 02:20:10;;;;;;;67.87;21.53;;;-4.50;99.90;;;;;;4399307;28;661504;-52
2021/03/19 02:23:34;;;;;;;65.67;20.40;;;-4.40;99.90;;;;;;4413135;28;660970;-56
2021/03/19 02:26:58;;;;;;;61.73;20.23;;;-4.40;99.90;;;;;;4438528;28;660608;-53
2021/03/19 02:30:22;;;;;;;66.33;20.90;;;-4.30;99.90;;;;;;4439599;28;661926;-53
2021/03/19 02:33:09;;;;;;;64.07;20.30;;;-4.20;99.90;;;;;;4434392;28;660697;-50
2021/03/19 02:35:58;;;;;;;62.17;19.30;;;-4.20;99.90;;;;;;4462208;28;660450;-53
2021/03/19 02:38:45;;;;;;;62.13;19.60;;;-4.20;99.90;;;;;;4433251;28;662181;-55
2021/03/19 02:41:32;;;;;;;60.63;19.93;;;-4.20;99.90;;;;;;4457069;28;660914;-56
2021/03/19 02:44:19;;;;;;;63.57;21.53;;;-4.20;99.90;;;;;;4462316;28;662429;-53
2021/03/19 02:47:06;;;;;;;58.00;19.77;;;-4.20;99.90;;;;;;4460460;28;660714;-50
2021/03/19 02:49:54;;;;;;;61.55;19.55;;;-4.30;99.90;;;;;;4426892;28;660837;-53
2021/03/19 02:52:42;;;;;;;56.50;18.73;;;-4.30;99.90;;;;;;4456956;28;661354;-51
2021/03/19 02:55:29;;;;;;;63.70;19.30;;;-4.40;99.90;;;;;;4441072;28;661195;-50
2021/03/19 02:58:16;;;;;;;54.17;18.33;;;-4.50;99.90;;;;;;4458706;28;660878;-53
2021/03/19 03:01:04;;;;;;;50.80;17.63;;;-4.60;99.90;;;;;;4442266;28;661042;-49
2021/03/19 03:03:51;;;;;;;51.20;17.43;;;-4.70;99.90;;;;;;4452203;28;660763;-54
2021/03/19 03:06:43;;;;;;;57.77;18.87;;;-4.80;99.90;;;;;;4444518;28;660742;-52
2021/03/19 03:09:32;;;;;;;54.60;17.27;;;-4.90;99.90;;;;;;4433689;28;661912;-54
2021/03/19 03:12:19;;;;;;;53.83;16.57;;;-5.00;99.90;;;;;;4428693;28;661404;-51
2021/03/19 03:15:07;;;;;;;45.83;15.67;;;-5.00;99.90;;;;;;4459399;28;661765;-53
2021/03/19 03:17:54;;;;;;;55.87;18.37;;;-5.20;99.90;;;;;;4429675;28;662836;-51
2021/03/19 03:20:45;;;;;;;50.33;16.70;;;-5.30;99.90;;;;;;4457628;28;661322;-51
2021/03/19 03:23:33;;;;;;;48.30;15.87;;;-5.30;99.90;;;;;;4429811;28;660653;-56
2021/03/19 03:26:20;;;;;;;47.60;16.87;;;-5.50;99.90;;;;;;4461862;28;661110;-52
2021/03/19 03:29:08;;;;;;;48.73;16.20;;;-5.50;99.90;;;;;;4443071;28;661595;-55
2021/03/19 03:31:55;;;;;;;50.77;16.33;;;-5.60;99.90;;;;;;4461281;28;662249;-52
2021/03/19 03:34:42;;;;;;;43.90;16.70;;;-5.70;99.90;;;;;;4450870;28;660763;-56
2021/03/19 03:37:29;;;;;;;49.33;16.13;;;-5.80;99.90;;;;;;4462541;28;661411;-49
2021/03/19 03:40:18;;;;;;;73.27;21.00;;;-5.80;99.90;;;;;;4455707;28;661402;-54
2021/03/19 03:43:05;;;;;;;50.23;17.07;;;-5.90;99.90;;;;;;4418132;28;662157;-54
2021/03/19 03:45:52;;;;;;;46.13;15.70;;;-5.90;99.90;;;;;;4436772;28;662233;-57
2021/03/19 03:48:39;;;;;;;38.03;15.17;;;-5.90;99.90;;;;;;4454522;28;660441;-52
2021/03/19 03:51:27;;;;;;;45.53;15.50;;;-6.00;99.90;;;;;;4459325;28;661005;-56
2021/03/19 03:54:14;;;;;;;36.57;14.57;;;-6.00;99.90;;;;;;4442426;28;662836;-52
2021/03/19 03:57:01;;;;;;;41.53;14.53;;;-6.10;99.90;;;;;;4457611;28;661760;-50
2021/03/19 03:59:48;;;;;;;47.87;15.97;;;-6.10;99.90;;;;;;4443808;28;660766;-54
2021/03/19 04:02:36;;;;;;;41.47;14.87;;;-6.20;99.90;;;;;;4450923;28;661118;-55
2021/03/19 04:05:24;;;;;;;41.23;13.90;;;-6.20;99.90;;;;;;4442946;28;661624;-53
2021/03/19 04:08:12;;;;;;;43.23;14.87;;;-6.30;99.90;;;;;;4461403;28;661106;-53
2021/03/19 04:11:01;;;;;;;47.63;15.50;;;-6.30;99.90;;;;;;4436996;28;662368;-54
2021/03/19 04:13:49;;;;;;;42.80;15.20;;;-6.30;99.90;;;;;;4441495;28;661111;-55
2021/03/19 04:16:35;;;;;;;46.90;15.90;;;-6.30;99.90;;;;;;4449680;28;661944;-53
2021/03/19 04:19:23;;;;;;;42.10;14.13;;;-6.40;99.90;;;;;;4429969;28;661287;-55
2021/03/19 04:22:09;;;;;;;38.30;13.70;;;-6.40;99.90;;;;;;4460936;28;662960;-52
2021/03/19 04:24:56;;;;;;;40.63;13.13;;;-6.40;99.90;;;;;;4454059;28;660305;-54
2021/03/19 04:27:46;;;;;;;43.03;14.67;;;-6.50;99.90;;;;;;4436793;28;661236;-52
2021/03/19 04:30:36;;;;;;;40.07;12.97;;;-6.50;99.90;;;;;;4436752;28;660612;-55
2021/03/19 04:33:25;;;;;;;33.83;13.63;;;-6.60;99.90;;;;;;4443456;28;661150;-56
2021/03/19 04:36:28;;;;;;;30.60;12.07;;;-6.60;99.90;;;;;;4434367;28;661132;-54
2021/03/19 04:39:23;;;;;;;34.67;12.43;;;-6.60;99.90;;;;;;4434412;28;661711;-54
2021/03/19 04:42:11;;;;;;;33.23;11.80;;;-6.70;99.90;;;;;;4437456;28;660782;-54
2021/03/19 04:44:57;;;;;;;38.60;12.47;;;-6.70;99.90;;;;;;4432612;28;660506;-52
2021/03/19 04:47:45;;;;;;;32.97;11.73;;;-6.70;99.90;;;;;;4452792;28;662085;-54
2021/03/19 04:50:32;;;;;;;36.10;12.43;;;-6.70;99.90;;;;;;4437079;28;661096;-55
2021/03/19 04:53:19;;;;;;;28.48;10.98;;;-6.60;99.90;;;;;;4459215;28;660144;-50
2021/03/19 04:56:06;;;;;;;33.97;12.43;;;-6.50;99.90;;;;;;4463707;28;661820;-54
2021/03/19 04:58:53;;;;;;;43.30;16.47;;;-6.50;99.90;;;;;;4437144;28;660837;-54
2021/03/19 05:01:47;;;;;;;55.50;16.60;;;-6.50;99.90;;;;;;4456236;28;662083;-53
2021/03/19 05:04:36;;;;;;;47.30;16.83;;;-6.50;99.90;;;;;;4407904;28;662369;-54
2021/03/19 05:07:23;;;;;;;38.37;13.50;;;-6.40;99.90;;;;;;4436069;28;661083;-56
2021/03/19 05:10:10;;;;;;;37.17;13.07;;;-6.40;99.90;;;;;;4458414;28;661536;-57
2021/03/19 05:12:57;;;;;;;34.17;12.73;;;-6.30;99.90;;;;;;4439165;28;660353;-55
2021/03/19 05:15:46;;;;;;;40.07;13.33;;;-6.20;99.90;;;;;;4460073;28;661923;-50
2021/03/19 05:18:33;;;;;;;40.27;13.83;;;-6.10;99.90;;;;;;4442902;28;660790;-55
2021/03/19 05:21:20;;;;;;;46.90;16.37;;;-6.00;99.90;;;;;;4454907;28;661947;-55
2021/03/19 05:24:08;;;;;;;45.97;15.67;;;-5.90;99.90;;;;;;4437851;28;660632;-56
2021/03/19 05:26:55;;;;;;;39.70;13.35;;;-5.80;99.90;;;;;;4461068;28;661468;-52
2021/03/19 05:29:46;;;;;;;34.60;11.47;;;-5.60;99.90;;;;;;4438685;28;662189;-57
2021/03/19 05:32:33;;;;;;;41.83;14.90;;;-5.50;99.90;;;;;;4441349;28;660932;-53
2021/03/19 05:35:21;;;;;;;47.27;17.77;;;-5.30;99.90;;;;;;4458482;28;661181;-53
2021/03/19 05:38:09;;;;;;;63.60;20.90;;;-5.20;99.90;;;;;;4441667;28;661211;-53
2021/03/19 05:40:57;;;;;;;63.23;22.43;;;-5.20;99.90;;;;;;4460884;28;661237;-55
2021/03/19 05:43:45;;;;;;;49.17;18.87;;;-5.10;99.90;;;;;;4429355;28;662706;-55
2021/03/19 05:46:33;;;;;;;63.33;21.73;;;-4.90;99.90;;;;;;4442181;28;660819;-56
2021/03/19 05:49:22;;;;;;;65.37;22.53;;;-4.80;99.90;;;;;;4467422;28;662202;-54
2021/03/19 05:52:18;;;;;;;61.10;21.63;;;-4.70;99.90;;;;;;4443657;28;661716;-52
2021/03/19 05:55:12;;;;;;;66.30;22.87;;;-4.60;99.90;;;;;;4438241;28;661298;-52
2021/03/19 05:57:59;;;;;;;70.00;25.27;;;-4.50;99.90;;;;;;4412004;28;662267;-53
2021/03/19 06:00:46;;;;;;;79.53;27.20;;;-4.40;99.90;;;;;;4446696;28;661967;-52
2021/03/19 06:03:33;;;;;;;110.53;32.90;;;-4.30;99.90;;;;;;4429263;28;660855;-52
2021/03/19 06:06:20;;;;;;;103.18;31.20;;;-4.20;99.90;;;;;;4445978;28;662331;-53
2021/03/19 06:09:21;;;;;;;122.38;36.97;;;-4.00;99.90;;;;;;4426694;28;662048;-56
2021/03/19 06:12:11;;;;;;;144.23;43.07;;;-3.80;99.90;;;;;;4403797;28;662375;-54
2021/03/19 06:14:58;;;;;;;117.47;37.90;;;-3.50;99.90;;;;;;4426384;28;662684;-56
2021/03/19 06:17:45;;;;;;;234.20;88.83;;;-3.20;99.90;;;;;;4446902;28;661656;-55
2021/03/19 06:20:32;;;;;;;108.77;35.17;;;-3.00;99.90;;;;;;4426792;28;662848;-54
2021/03/19 06:23:20;;;;;;;109.33;36.43;;;-2.70;99.90;;;;;;4450115;28;662917;-54
2021/03/19 06:26:17;;;;;;;109.83;34.80;;;-2.30;99.90;;;;;;4436838;28;663058;-56
2021/03/19 06:29:07;;;;;;;97.90;30.07;;;-2.00;99.90;;;;;;4399925;28;663434;-55
2021/03/19 06:32:08;;;;;;;89.30;28.73;;;-1.60;99.90;;;;;;4424216;28;661456;-54
2021/03/19 06:35:01;;;;;;;74.40;26.73;;;-1.20;99.90;;;;;;4424288;28;661480;-53
2021/03/19 06:37:49;;;;;;;72.43;25.17;;;-0.80;99.90;;;;;;4401004;28;661671;-52
2021/03/19 06:40:38;;;;;;;48.77;19.13;;;-0.40;99.90;;;;;;4447209;28;660614;-53
2021/03/19 06:43:26;;;;;;;45.20;18.55;;;-0.10;99.90;;;;;;4416970;28;662173;-55
2021/03/19 06:46:15;;;;;;;30.07;14.30;;;0.10;99.90;;;;;;4427923;28;661927;-56
2021/03/19 06:49:04;;;;;;;26.02;10.98;;;0.30;99.90;;;;;;4435031;28;660596;-56
2021/03/19 06:51:51;;;;;;;24.37;11.03;;;0.40;99.90;;;;;;4448869;28;659890;-55
2021/03/19 06:54:48;;;;;;;26.20;13.10;;;0.60;99.90;;;;;;4427151;28;660906;-56
2021/03/19 06:57:45;;;;;;;27.17;12.03;;;0.60;99.90;;;;;;4424513;28;660636;-54
2021/03/19 07:00:36;;;;;;;29.50;12.33;;;0.80;99.90;;;;;;4418913;28;659573;-57
2021/03/19 07:04:06;;;;;;;28.33;11.90;;;1.10;99.90;;;;;;4429286;28;660864;-53
2021/03/19 07:06:54;;;;;;;33.13;12.23;;;1.20;99.90;;;;;;4405594;28;659892;-56
2021/03/19 07:09:47;;;;;;;28.73;11.83;;;1.30;99.90;;;;;;4447692;28;659417;-54
2021/03/19 07:12:40;;;;;;;132.57;42.97;;;1.40;99.90;;;;;;4429048;28;659410;-55
2021/03/19 07:15:30;;;;;;;180.70;55.87;;;1.30;99.90;;;;;;4410433;28;660703;-56
2021/03/19 07:18:26;;;;;;;145.03;51.50;;;1.40;99.90;;;;;;4427718;28;660700;-52
2021/03/19 07:21:37;;;;;;;150.63;50.53;;;1.10;99.90;;;;;;4400651;28;662069;-57
2021/03/19 07:24:45;;;;;;;122.30;42.93;;;1.10;99.90;;;;;;4400582;28;661306;-51
2021/03/19 07:27:41;;;;;;;71.10;25.57;;;1.10;99.90;;;;;;4404603;28;660676;-54
2021/03/19 07:30:31;;;;;;;28.60;11.40;;;1.20;99.90;;;;;;4394395;28;660568;-54
2021/03/19 07:33:25;;;;;;;25.03;10.50;;;1.10;99.90;;;;;;4428782;28;660267;-54
2021/03/19 07:36:28;;;;;;;25.53;10.57;;;1.30;99.90;;;;;;4405703;28;660281;-56
2021/03/19 07:39:32;;;;;;;24.83;11.37;;;1.40;99.90;;;;;;4424641;28;660306;-51
2021/03/19 07:42:44;;;;;;;27.03;11.27;;;1.50;99.90;;;;;;4401520;28;660867;-54
2021/03/19 07:45:33;;;;;;;21.70;10.40;;;1.50;99.90;;;;;;4360767;28;659452;-54
2021/03/19 07:48:31;;;;;;;22.77;10.70;;;1.90;99.90;;;;;;4422546;28;660551;-54
2021/03/19 07:51:24;;;;;;;28.93;12.53;;;2.00;99.90;;;;;;4427850;28;660310;-57
2021/03/19 07:54:14;;;;;;;27.47;12.93;;;2.10;99.90;;;;;;4429017;28;660234;-56
2021/03/19 07:57:03;;;;;;;26.53;11.50;;;2.20;99.90;;;;;;4424522;28;660617;-52
2021/03/19 07:59:55;;;;;;;26.03;12.23;;;2.10;99.90;;;;;;4424456;28;661127;-55
2021/03/19 08:02:58;;;;;;;29.30;12.63;;;2.20;99.90;;;;;;4414163;28;660082;-58
2021/03/19 08:05:47;;;;;;;31.77;12.37;;;2.10;99.90;;;;;;4424084;28;660632;-54
2021/03/19 08:08:37;;;;;;;30.27;12.30;;;2.40;99.90;;;;;;4424189;28;661366;-55
2021/03/19 08:11:29;;;;;;;30.57;13.33;;;2.30;99.90;;;;;;4428163;28;660323;-54
2021/03/19 08:14:33;;;;;;;45.40;18.03;;;1.90;99.90;;;;;;4424111;28;660884;-55
2021/03/19 08:17:36;;;;;;;58.20;17.67;;;1.80;99.90;;;;;;4424066;28;660621;-53
2021/03/19 08:20:29;;;;;;;76.40;30.23;;;2.00;99.90;;;;;;4425166;28;660277;-55
2021/03/19 08:23:22;;;;;;;45.13;15.30;;;1.80;99.90;;;;;;4423117;28;659965;-53
2021/03/19 08:26:12;;;;;;;97.70;34.10;;;1.80;99.90;;;;;;4428043;28;660025;-53
2021/03/19 08:29:04;;;;;;;33.80;14.07;;;1.60;99.90;;;;;;4424017;28;661291;-53
2021/03/19 08:31:52;;;;;;;49.07;16.97;;;1.40;99.90;;;;;;4423881;28;660204;-54
2021/03/19 08:34:42;;;;;;;40.87;17.93;;;1.40;99.90;;;;;;4428024;28;660770;-53
2021/03/19 08:37:38;;;;;;;48.90;19.10;;;1.50;99.90;;;;;;4424046;28;661069;-52
2021/03/19 08:40:32;;;;;;;47.00;17.60;;;1.90;99.90;;;;;;4424065;28;661051;-52
2021/03/19 08:43:26;;;;;;;38.40;17.00;;;2.20;99.90;;;;;;4428135;28;659405;-55
2021/03/19 08:46:17;;;;;;;52.40;17.40;;;2.30;99.90;;;;;;4401349;28;661533;-50
2021/03/19 08:49:06;;;;;;;42.00;17.13;;;2.50;99.90;;;;;;4424272;28;660921;-53
2021/03/19 08:51:53;;;;;;;36.37;13.20;;;2.40;99.90;;;;;;4428047;28;660216;-57
2021/03/19 08:54:40;;;;;;;42.85;18.00;;;2.40;99.90;;;;;;4447836;28;661916;-53
2021/03/19 08:57:31;;;;;;;42.80;15.73;;;2.40;99.90;;;;;;4426031;28;660910;-56
2021/03/19 09:00:47;;;;;;;37.53;16.00;;;2.50;99.90;;;;;;4423408;28;660361;-52
2021/03/19 09:03:55;;;;;;;49.80;18.50;;;2.70;99.90;;;;;;4400488;28;660424;-53
2021/03/19 09:07:15;;;;;;;41.17;17.87;;;2.50;99.90;;;;;;4417723;28;659915;-57
2021/03/19 09:10:05;;;;;;;41.27;17.77;;;2.60;99.90;;;;;;4404779;28;659693;-54
2021/03/19 09:13:13;;;;;;;42.93;16.30;;;2.70;99.90;;;;;;4438626;28;659898;-58
2021/03/19 09:16:52;;;;;;;50.70;20.33;;;2.60;99.90;;;;;;4423247;28;660463;-54
2021/03/19 09:20:01;;;;;;;46.77;20.07;;;2.60;99.90;;;;;;4357153;28;661114;-52
2021/03/19 09:22:49;;;;;;;36.03;15.73;;;3.20;99.90;;;;;;4402159;28;660289;-54
2021/03/19 09:25:38;;;;;;;29.53;13.63;;;4.20;99.90;;;;;;4449478;28;660295;-56
2021/03/19 09:29:07;;;;;;;27.85;13.00;;;4.80;99.90;;;;;;4426781;28;660476;-57
2021/03/19 09:31:54;;;;;;;26.13;10.07;;;5.40;99.90;;;;;;4426684;28;660034;-55
2021/03/19 09:35:33;;;;;;;27.55;12.07;;;5.30;89.00;;;;;;4446332;28;660819;-55
2021/03/19 09:38:41;;;;;;;32.00;13.93;;;5.10;87.70;;;;;;4426510;28;660627;-57
2021/03/19 09:41:49;;;;;;;30.93;13.37;;;4.90;90.10;;;;;;4407662;28;661128;-53
2021/03/19 09:44:36;;;;;;;31.67;12.87;;;4.80;89.40;;;;;;4426627;28;660433;-52
2021/03/19 09:47:26;;;;;;;24.70;10.87;;;4.50;90.20;;;;;;4429370;28;660142;-57
2021/03/19 09:50:15;;;;;;;21.43;10.87;;;4.40;87.40;;;;;;4431222;28;659435;-53
2021/03/19 09:53:05;;;;;;;20.77;10.07;;;4.10;87.60;;;;;;4449358;28;659638;-57
2021/03/19 09:55:53;;;;;;;19.50;9.80;;;4.10;88.00;;;;;;4430244;28;659694;-54
2021/03/19 09:58:43;;;;;;;26.20;12.00;;;3.90;88.70;;;;;;4454339;28;658256;-54
2021/03/19 10:01:40;;;;;;;19.40;10.30;;;3.90;89.20;;;;;;4426320;28;661217;-56
2021/03/19 10:04:31;;;;;;;35.08;10.35;;;3.80;89.20;;;;;;4423557;28;659424;-57
2021/03/19 10:07:19;;;;;;;31.42;12.68;;;3.80;86.50;;;;;;4430188;28;661072;-56
2021/03/19 10:10:24;;;;;;;31.00;13.18;;;3.70;90.20;;;;;;4449089;28;660250;-56
2021/03/19 10:13:17;;;;;;;47.80;13.73;;;3.40;90.90;;;;;;4426127;28;659868;-53
2021/03/19 10:16:05;;;;;;;23.37;9.53;;;3.30;92.00;;;;;;4402817;28;661035;-54
2021/03/19 10:18:52;;;;;;;24.43;9.40;;;3.20;93.50;;;;;;4449726;28;658301;-55
2021/03/19 10:21:41;;;;;;;25.53;10.73;;;3.00;94.20;;;;;;4427189;28;660117;-54
2021/03/19 10:24:28;;;;;;;28.83;12.05;;;2.80;95.70;;;;;;4423477;28;660015;-54
2021/03/19 10:27:17;;;;;;;29.40;11.40;;;2.80;97.90;;;;;;4448751;28;661028;-54
2021/03/19 10:30:04;;;;;;;30.13;12.97;;;2.60;99.90;;;;;;4429476;28;660582;-55
2021/03/19 10:32:52;;;;;;;34.50;14.90;;;2.30;99.90;;;;;;4447203;28;660368;-54
2021/03/19 10:35:40;;;;;;;32.37;13.80;;;2.10;99.90;;;;;;4430100;28;660288;-55
2021/03/19 10:38:32;;;;;;;30.92;12.73;;;2.10;99.90;;;;;;4434636;28;659764;-55
2021/03/19 10:41:23;;;;;;;28.23;13.10;;;1.90;99.90;;;;;;4429510;28;661767;-50
2021/03/19 10:44:16;;;;;;;29.63;13.20;;;1.80;99.90;;;;;;4425485;28;661028;-53
2021/03/19 10:47:08;;;;;;;28.65;11.63;;;1.90;99.90;;;;;;4403028;28;659808;-56
2021/03/19 10:49:56;;;;;;;28.70;12.63;;;2.00;99.90;;;;;;4425230;28;660637;-53
2021/03/19 10:52:45;;;;;;;33.67;13.73;;;2.20;99.90;;;;;;4429161;28;660849;-54
2021/03/19 10:55:34;;;;;;;40.63;18.33;;;2.30;99.90;;;;;;4440807;28;660866;-55
2021/03/19 10:58:39;;;;;;;48.77;19.50;;;2.10;99.90;;;;;;4448418;28;660251;-51
2021/03/19 11:01:34;;;;;;;55.10;20.07;;;1.90;99.90;;;;;;4425454;28;659652;-49
2021/03/19 11:04:32;;;;;;;43.97;17.83;;;1.90;99.90;;;;;;4423127;28;659801;-54
2021/03/19 11:07:30;;;;;;;42.40;15.90;;;1.70;99.90;;;;;;4402184;28;660356;-53
2021/03/19 11:10:23;;;;;;;29.43;13.77;;;1.50;99.90;;;;;;4417618;28;659709;-56
2021/03/19 11:13:25;;;;;;;35.83;16.03;;;1.20;99.90;;;;;;4425127;28;661199;-56
2021/03/19 11:16:31;;;;;;;50.73;20.13;;;1.10;99.90;;;;;;4405974;28;660122;-56
2021/03/19 11:19:19;;;;;;;36.17;14.17;;;1.30;99.90;;;;;;4405991;28;661369;-54
2021/03/19 11:22:08;;;;;;;28.90;13.33;;;1.30;99.90;;;;;;4447647;28;659946;-54
2021/03/19 11:25:07;;;;;;;30.60;13.65;;;1.40;99.90;;;;;;4421487;28;660489;-55
2021/03/19 11:27:54;;;;;;;30.47;14.73;;;1.80;99.90;;;;;;4401560;28;660534;-50
2021/03/19 11:30:41;;;;;;;40.47;14.97;;;2.70;99.90;;;;;;4447950;28;661144;-54
2021/03/19 11:33:29;;;;;;;33.47;13.83;;;3.20;99.90;;;;;;4427502;28;660960;-53
2021/03/19 11:36:16;;;;;;;37.27;15.30;;;3.60;99.90;;;;;;4446874;28;660997;-55
2021/03/19 11:39:13;;;;;;;31.67;13.63;;;4.10;99.90;;;;;;4424125;28;660948;-53
2021/03/19 11:42:00;;;;;;;29.67;13.47;;;4.80;99.90;;;;;;4401830;28;661024;-52
2021/03/19 11:44:49;;;;;;;28.93;12.87;;;5.30;99.90;;;;;;4432367;28;660514;-57
2021/03/19 11:47:37;;;;;;;32.23;12.33;;;5.80;99.90;;;;;;4447744;28;660066;-53
2021/03/19 11:50:31;;;;;;;27.97;13.40;;;5.90;99.90;;;;;;4424789;28;660828;-53
2021/03/19 11:53:20;;;;;;;31.30;12.87;;;6.10;99.90;;;;;;4403054;28;661155;-55
2021/03/19 11:56:07;;;;;;;22.60;10.93;;;6.30;99.90;;;;;;4440215;28;659669;-56
2021/03/19 11:58:54;;;;;;;23.63;10.13;;;6.40;99.90;;;;;;4448818;28;661029;-54
2021/03/19 12:01:42;;;;;;;22.93;10.40;;;6.30;97.50;;;;;;4449059;28;660131;-52
2021/03/19 12:04:29;;;;;;;19.47;9.47;;;5.80;98.30;;;;;;4426160;28;661227;-51
2021/03/19 12:07:17;;;;;;;21.63;10.17;;;5.40;97.60;;;;;;4448784;28;658495;-52
2021/03/19 12:10:05;;;;;;;20.53;10.50;;;5.10;98.60;;;;;;4426323;28;661515;-52
2021/03/19 12:12:52;;;;;;;24.20;11.87;;;5.20;98.50;;;;;;4438150;28;659784;-56
2021/03/19 12:15:39;;;;;;;25.90;10.87;;;5.10;99.90;;;;;;4453176;28;659886;-56
2021/03/19 12:18:27;;;;;;;25.35;10.45;;;5.50;99.90;;;;;;4449207;28;659640;-54
2021/03/19 12:21:14;;;;;;;22.00;10.37;;;5.20;99.70;;;;;;4430147;28;659726;-50
2021/03/19 12:24:02;;;;;;;21.00;9.73;;;5.30;99.40;;;;;;4448914;28;659761;-50
2021/03/19 12:26:49;;;;;;;20.13;9.63;;;5.30;99.90;;;;;;4427022;28;659538;-53
2021/03/19 12:29:36;;;;;;;22.50;11.10;;;5.20;99.90;;;;;;4749268;28;659110;-52
2021/03/19 12:32:23;;;;;;;24.00;11.73;;;5.40;99.90;;;;;;5070805;28;20211;-56
2021/03/19 12:35:11;;;;;;;31.03;12.03;;;5.30;99.90;;;;;;5070769;28;20211;-55
2021/03/19 12:37:58;;;;;;;21.90;10.40;;;5.10;98.90;;;;;;5070413;28;20211;-55
2021/03/19 12:40:47;;;;;;;22.03;11.23;;;4.70;99.80;;;;;;5070640;28;20687;-53
2021/03/19 12:43:34;;;;;;;26.50;11.17;;;4.30;99.90;;;;;;5070736;28;20197;-51
2021/03/19 12:46:21;;;;;;;24.53;11.90;;;3.60;99.90;;;;;;5070603;28;20227;-52
2021/03/19 12:49:08;;;;;;;20.50;10.67;;;3.20;99.90;;;;;;5070841;28;20239;-53
2021/03/19 12:51:56;;;;;;;32.43;11.47;;;2.60;99.90;;;;;;5070787;28;20234;-54
2021/03/19 12:54:43;;;;;;;25.07;11.40;;;1.90;99.90;;;;;;5070500;28;20299;-51
2021/03/19 12:57:33;;;;;;;24.80;11.07;;;1.30;99.90;;;;;;5074922;28;20592;-53
2021/03/19 13:00:22;;;;;;;25.03;11.30;;;1.00;99.90;;;;;;5074030;28;20291;-53
2021/03/19 13:03:10;;;;;;;25.33;12.30;;;1.20;99.90;;;;;;5096677;28;20208;-51
2021/03/19 13:05:57;;;;;;;27.63;12.07;;;1.20;99.90;;;;;;5095992;28;20223;-55
2021/03/19 13:08:44;;;;;;;28.50;13.60;;;1.30;99.90;;;;;;5095900;28;20207;-51
2021/03/19 13:11:31;;;;;;;33.20;15.43;;;1.40;99.90;;;;;;5095990;28;20191;-51
2021/03/19 13:14:19;;;;;;;32.40;14.37;;;1.80;99.90;;;;;;5095756;28;20215;-50
2021/03/19 13:17:06;;;;;;;37.67;15.53;;;2.00;99.90;;;;;;5101659;28;20238;-51
2021/03/19 13:19:53;;;;;;;40.13;15.10;;;2.30;99.90;;;;;;5114599;28;20595;-52
2021/03/19 13:22:40;;;;;;;32.43;15.47;;;2.50;99.90;;;;;;5114526;28;20226;-55
2021/03/19 13:25:30;;;;;;;32.27;13.73;;;2.40;99.90;;;;;;5114260;28;20282;-54
2021/03/19 13:28:17;;;;;;;31.47;11.60;;;2.40;99.90;;;;;;5114279;28;20221;-55
2021/03/19 13:31:05;;;;;;;27.20;13.00;;;2.20;99.90;;;;;;5113760;28;20210;-50
2021/03/19 13:33:52;;;;;;;23.40;9.90;;;1.80;99.90;;;;;;5114210;28;20215;-53
2021/03/19 13:36:39;;;;;;;19.17;9.33;;;1.00;99.90;;;;;;5113735;28;20278;-52
2021/03/19 13:39:27;;;;;;;20.37;10.10;;;0.60;99.90;;;;;;5113697;28;20252;-54
2021/03/19 13:42:14;;;;;;;17.63;8.40;;;0.40;99.90;;;;;;5113960;28;20260;-51
2021/03/19 13:45:02;;;;;;;16.73;8.30;;;0.20;99.90;;;;;;5113079;28;20210;-53
2021/03/19 13:47:50;;;;;;;14.60;6.60;;;0.00;99.90;;;;;;5113274;28;20203;-53
2021/03/19 13:50:38;;;;;;;21.43;8.70;;;0.30;99.90;;;;;;5113809;28;20201;-55
2021/03/19 13:53:25;;;;;;;21.63;9.17;;;0.50;99.90;;;;;;5113264;28;20211;-52
2021/03/19 13:56:12;;;;;;;25.10;10.57;;;0.60;99.90;;;;;;5113453;28;20636;-52
2021/03/19 13:59:00;;;;;;;21.10;9.33;;;0.90;99.90;;;;;;5113594;28;20210;-54
2021/03/19 14:01:47;;;;;;;18.13;8.07;;;1.20;99.90;;;;;;5113075;28;20198;-52
2021/03/19 14:04:35;;;;;;;23.53;9.37;;;1.90;99.90;;;;;;5113344;28;20674;-52
2021/03/19 14:07:22;;;;;;;19.83;7.83;;;2.50;99.90;;;;;;5112928;28;20207;-54
2021/03/19 14:10:10;;;;;;;19.20;8.87;;;3.00;99.90;;;;;;5113273;28;20249;-53
2021/03/19 14:12:57;;;;;;;21.97;9.00;;;3.00;99.90;;;;;;5113000;28;20199;-52
2021/03/19 14:15:44;;;;;;;28.70;9.60;;;2.90;99.90;;;;;;5112995;28;20211;-51
2021/03/19 14:18:32;;;;;;;31.67;12.47;;;3.20;99.90;;;;;;5113032;28;20286;-53
2021/03/19 14:21:20;;;;;;;39.67;15.00;;;4.40;99.90;;;;;;5113207;28;20260;-53
2021/03/19 14:24:08;;;;;;;40.17;14.97;;;4.20;99.90;;;;;;5113207;28;20680;-55
2021/03/19 14:26:55;;;;;;;87.40;24.13;;;3.80;99.90;;;;;;5113416;28;20211;-54
2021/03/19 14:29:43;;;;;;;71.23;22.83;;;3.50;99.90;;;;;;5113108;28;20206;-56